sensor_id;sensor_type;location;lat;lon;timestamp;temperature;humidity
15133;DHT22;7667;51.232;17.110;2022-11-20T00:01:33;-6.20;99.90
15133;DHT22;7667;51.232;17.110;2022-11-20T00:04:01;-6.20;99.90
15133;DHT22;7667;51.232;17.110;2022-11-20T00:06:29;-6.10;99.90
15133;DHT22;7667;51.232;17.110;2022-11-20T00:08:59;-6.10;99.90
15133;DHT22;7667;51.232;17.110;2022-11-20T00:11:30;-6.10;99.90
15133;DHT22;7667;51.232;17.110;2022-11-20T00:14:01;-6.20;99.90
15133;DHT22;7667;51.232;17.110;2022-11-20T00:16:31;-6.20;99.90
15133;DHT22;7667;51.232;17.110;2022-11-20T00:18:59;-6.30;99.90
15133;DHT22;7667;51.232;17.110;2022-11-20T00:21:28;-6.30;99.90
15133;DHT22;7667;51.232;17.110;2022-11-20T00:23:56;-6.50;99.90
15133;DHT22;7667;51.232;17.110;2022-11-20T00:26:26;-6.70;99.90
15133;DHT22;7667;51.232;17.110;2022-11-20T00:28:56;-6.90;99.90
15133;DHT22;7667;51.232;17.110;2022-11-20T00:31:25;-7.00;99.90
15133;DHT22;7667;51.232;17.110;2022-11-20T00:33:53;-7.20;99.90
15133;DHT22;7667;51.232;17.110;2022-11-20T00:36:23;-7.10;99.90
15133;DHT22;7667;51.232;17.110;2022-11-20T00:38:57;-7.10;99.90
15133;DHT22;7667;51.232;17.110;2022-11-20T00:41:26;-7.10;99.90
15133;DHT22;7667;51.232;17.110;2022-11-20T00:43:55;-7.20;99.90
15133;DHT22;7667;51.232;17.110;2022-11-20T00:46:25;-7.10;99.90
15133;DHT22;7667;51.232;17.110;2022-11-20T00:48:54;-6.90;99.90
15133;DHT22;7667;51.232;17.110;2022-11-20T00:51:24;-6.80;99.90
15133;DHT22;7667;51.232;17.110;2022-11-20T00:53:55;-6.90;99.90
15133;DHT22;7667;51.232;17.110;2022-11-20T00:56:23;-6.70;99.90
15133;DHT22;7667;51.232;17.110;2022-11-20T00:58:51;-6.80;99.90
15133;DHT22;7667;51.232;17.110;2022-11-20T01:01:20;-6.80;99.90
15133;DHT22;7667;51.232;17.110;2022-11-20T01:03:53;-7.00;99.90
15133;DHT22;7667;51.232;17.110;2022-11-20T01:06:28;-7.10;99.90
15133;DHT22;7667;51.232;17.110;2022-11-20T01:09:02;-7.00;99.90
15133;DHT22;7667;51.232;17.110;2022-11-20T01:11:37;-7.10;99.90
15133;DHT22;7667;51.232;17.110;2022-11-20T01:14:09;-7.00;99.90
15133;DHT22;7667;51.232;17.110;2022-11-20T01:16:43;-6.70;99.90
15133;DHT22;7667;51.232;17.110;2022-11-20T01:19:15;-6.70;99.90
15133;DHT22;7667;51.232;17.110;2022-11-20T01:21:53;-6.70;99.90
15133;DHT22;7667;51.232;17.110;2022-11-20T01:24:22;-6.90;99.90
15133;DHT22;7667;51.232;17.110;2022-11-20T01:26:51;-7.10;99.90
15133;DHT22;7667;51.232;17.110;2022-11-20T01:29:23;-7.10;99.90
15133;DHT22;7667;51.232;17.110;2022-11-20T01:31:52;-6.90;99.90
15133;DHT22;7667;51.232;17.110;2022-11-20T01:34:20;-6.90;99.90
15133;DHT22;7667;51.232;17.110;2022-11-20T01:36:50;-6.70;99.90
15133;DHT22;7667;51.232;17.110;2022-11-20T01:39:25;-6.60;99.90
15133;DHT22;7667;51.232;17.110;2022-11-20T01:41:55;-6.50;99.90
15133;DHT22;7667;51.232;17.110;2022-11-20T01:50:13;-6.30;99.90
15133;DHT22;7667;51.232;17.110;2022-11-20T01:53:02;-6.30;99.90
15133;DHT22;7667;51.232;17.110;2022-11-20T01:55:36;-6.20;99.90
15133;DHT22;7667;51.232;17.110;2022-11-20T01:58:06;-6.20;99.90
15133;DHT22;7667;51.232;17.110;2022-11-20T02:00:33;-6.20;99.90
15133;DHT22;7667;51.232;17.110;2022-11-20T02:03:05;-6.30;99.90
15133;DHT22;7667;51.232;17.110;2022-11-20T02:06:16;-6.40;99.90
15133;DHT22;7667;51.232;17.110;2022-11-20T02:08:46;-6.50;99.90
15133;DHT22;7667;51.232;17.110;2022-11-20T02:11:14;-6.70;99.90
15133;DHT22;7667;51.232;17.110;2022-11-20T02:13:41;-6.80;99.90
15133;DHT22;7667;51.232;17.110;2022-11-20T02:16:35;-6.90;99.90
15133;DHT22;7667;51.232;17.110;2022-11-20T02:19:17;-7.10;99.90
15133;DHT22;7667;51.232;17.110;2022-11-20T02:24:31;-7.10;99.90
15133;DHT22;7667;51.232;17.110;2022-11-20T02:27:09;-7.10;99.90
15133;DHT22;7667;51.232;17.110;2022-11-20T02:37:49;-7.00;99.90
15133;DHT22;7667;51.232;17.110;2022-11-20T02:40:18;-6.90;99.90
15133;DHT22;7667;51.232;17.110;2022-11-20T02:42:46;-6.70;99.90
15133;DHT22;7667;51.232;17.110;2022-11-20T02:45:13;-6.90;99.90
15133;DHT22;7667;51.232;17.110;2022-11-20T02:47:40;-7.10;99.90
15133;DHT22;7667;51.232;17.110;2022-11-20T02:50:08;-7.20;99.90
15133;DHT22;7667;51.232;17.110;2022-11-20T02:52:36;-7.00;99.90
15133;DHT22;7667;51.232;17.110;2022-11-20T02:55:04;-6.80;99.90
15133;DHT22;7667;51.232;17.110;2022-11-20T02:57:31;-6.80;99.90
15133;DHT22;7667;51.232;17.110;2022-11-20T02:59:59;-6.90;99.90
15133;DHT22;7667;51.232;17.110;2022-11-20T03:02:30;-6.90;99.90
15133;DHT22;7667;51.232;17.110;2022-11-20T03:04:58;-6.90;99.90
15133;DHT22;7667;51.232;17.110;2022-11-20T03:07:25;-6.90;99.90
15133;DHT22;7667;51.232;17.110;2022-11-20T03:09:53;-7.00;99.90
15133;DHT22;7667;51.232;17.110;2022-11-20T03:12:20;-7.10;99.90
15133;DHT22;7667;51.232;17.110;2022-11-20T03:14:48;-7.30;99.90
15133;DHT22;7667;51.232;17.110;2022-11-20T03:17:19;-7.20;99.90
15133;DHT22;7667;51.232;17.110;2022-11-20T03:19:46;-7.10;99.90
15133;DHT22;7667;51.232;17.110;2022-11-20T03:22:14;-6.90;99.90
15133;DHT22;7667;51.232;17.110;2022-11-20T03:24:41;-6.90;99.90
15133;DHT22;7667;51.232;17.110;2022-11-20T03:27:09;-6.90;99.90
15133;DHT22;7667;51.232;17.110;2022-11-20T03:29:36;-6.90;99.90
15133;DHT22;7667;51.232;17.110;2022-11-20T03:32:04;-6.90;99.90
15133;DHT22;7667;51.232;17.110;2022-11-20T03:34:32;-6.90;99.90
15133;DHT22;7667;51.232;17.110;2022-11-20T03:36:59;-6.90;99.90
15133;DHT22;7667;51.232;17.110;2022-11-20T03:39:27;-6.70;99.90
15133;DHT22;7667;51.232;17.110;2022-11-20T03:41:54;-6.80;99.90
15133;DHT22;7667;51.232;17.110;2022-11-20T03:44:22;-7.00;99.90
15133;DHT22;7667;51.232;17.110;2022-11-20T03:46:49;-7.00;99.90
15133;DHT22;7667;51.232;17.110;2022-11-20T03:49:17;-7.00;99.90
15133;DHT22;7667;51.232;17.110;2022-11-20T03:51:44;-7.10;99.90
15133;DHT22;7667;51.232;17.110;2022-11-20T03:54:12;-6.90;99.90
15133;DHT22;7667;51.232;17.110;2022-11-20T03:56:39;-6.80;99.90
15133;DHT22;7667;51.232;17.110;2022-11-20T03:59:09;-6.90;99.90
15133;DHT22;7667;51.232;17.110;2022-11-20T04:01:37;-7.00;99.90
15133;DHT22;7667;51.232;17.110;2022-11-20T04:04:05;-7.20;99.90
15133;DHT22;7667;51.232;17.110;2022-11-20T04:06:37;-7.40;99.90
15133;DHT22;7667;51.232;17.110;2022-11-20T04:09:06;-7.50;99.90
15133;DHT22;7667;51.232;17.110;2022-11-20T04:11:35;-7.40;99.90
15133;DHT22;7667;51.232;17.110;2022-11-20T04:14:06;-7.40;99.90
15133;DHT22;7667;51.232;17.110;2022-11-20T04:16:35;-7.20;99.90
15133;DHT22;7667;51.232;17.110;2022-11-20T04:19:04;-7.10;99.90
15133;DHT22;7667;51.232;17.110;2022-11-20T04:21:33;-7.10;99.90
15133;DHT22;7667;51.232;17.110;2022-11-20T04:24:02;-7.10;99.90
15133;DHT22;7667;51.232;17.110;2022-11-20T04:26:30;-7.30;99.90
15133;DHT22;7667;51.232;17.110;2022-11-20T04:28:58;-7.50;99.90
15133;DHT22;7667;51.232;17.110;2022-11-20T04:31:28;-7.70;99.90
15133;DHT22;7667;51.232;17.110;2022-11-20T04:34:02;-7.80;99.90
15133;DHT22;7667;51.232;17.110;2022-11-20T04:36:31;-7.90;99.90
15133;DHT22;7667;51.232;17.110;2022-11-20T04:39:03;-8.00;99.90
15133;DHT22;7667;51.232;17.110;2022-11-20T04:41:34;-8.10;99.90
15133;DHT22;7667;51.232;17.110;2022-11-20T04:44:04;-8.10;99.90
15133;DHT22;7667;51.232;17.110;2022-11-20T04:46:35;-8.00;99.90
15133;DHT22;7667;51.232;17.110;2022-11-20T04:49:07;-8.00;99.90
15133;DHT22;7667;51.232;17.110;2022-11-20T04:51:35;-8.00;99.90
15133;DHT22;7667;51.232;17.110;2022-11-20T04:54:02;-7.80;99.90
15133;DHT22;7667;51.232;17.110;2022-11-20T04:56:30;-7.60;99.90
15133;DHT22;7667;51.232;17.110;2022-11-20T04:59:00;-7.40;99.90
15133;DHT22;7667;51.232;17.110;2022-11-20T05:01:28;-7.30;99.90
15133;DHT22;7667;51.232;17.110;2022-11-20T05:03:56;-7.20;99.90
15133;DHT22;7667;51.232;17.110;2022-11-20T05:06:23;-7.20;99.90
15133;DHT22;7667;51.232;17.110;2022-11-20T05:08:51;-7.20;99.90
15133;DHT22;7667;51.232;17.110;2022-11-20T05:11:20;-7.10;99.90
15133;DHT22;7667;51.232;17.110;2022-11-20T05:13:49;-7.10;99.90
15133;DHT22;7667;51.232;17.110;2022-11-20T05:16:19;-6.90;99.90
15133;DHT22;7667;51.232;17.110;2022-11-20T05:18:49;-6.90;99.90
15133;DHT22;7667;51.232;17.110;2022-11-20T05:21:17;-6.80;99.90
15133;DHT22;7667;51.232;17.110;2022-11-20T05:23:45;-6.90;99.90
15133;DHT22;7667;51.232;17.110;2022-11-20T05:26:16;-7.10;99.90
15133;DHT22;7667;51.232;17.110;2022-11-20T05:28:49;-7.20;99.90
15133;DHT22;7667;51.232;17.110;2022-11-20T05:31:22;-7.20;99.90
15133;DHT22;7667;51.232;17.110;2022-11-20T05:33:55;-7.20;99.90
15133;DHT22;7667;51.232;17.110;2022-11-20T05:36:24;-7.20;99.90
15133;DHT22;7667;51.232;17.110;2022-11-20T05:38:52;-7.20;99.90
15133;DHT22;7667;51.232;17.110;2022-11-20T05:41:26;-7.30;99.90
15133;DHT22;7667;51.232;17.110;2022-11-20T05:43:56;-7.30;99.90
15133;DHT22;7667;51.232;17.110;2022-11-20T05:46:26;-7.30;99.90
15133;DHT22;7667;51.232;17.110;2022-11-20T05:48:56;-7.30;99.90
15133;DHT22;7667;51.232;17.110;2022-11-20T05:51:25;-7.40;99.90
15133;DHT22;7667;51.232;17.110;2022-11-20T05:53:53;-7.40;99.90
15133;DHT22;7667;51.232;17.110;2022-11-20T05:56:21;-7.40;99.90
15133;DHT22;7667;51.232;17.110;2022-11-20T05:58:49;-7.30;99.90
15133;DHT22;7667;51.232;17.110;2022-11-20T06:01:24;-7.40;99.90
15133;DHT22;7667;51.232;17.110;2022-11-20T06:03:54;-7.40;99.90
15133;DHT22;7667;51.232;17.110;2022-11-20T06:06:22;-7.40;99.90
15133;DHT22;7667;51.232;17.110;2022-11-20T06:08:49;-7.40;99.90
15133;DHT22;7667;51.232;17.110;2022-11-20T06:11:18;-7.50;99.90
15133;DHT22;7667;51.232;17.110;2022-11-20T06:13:46;-7.70;99.90
15133;DHT22;7667;51.232;17.110;2022-11-20T06:16:16;-7.70;99.90
15133;DHT22;7667;51.232;17.110;2022-11-20T06:18:46;-7.90;99.90
15133;DHT22;7667;51.232;17.110;2022-11-20T06:21:19;-8.10;99.90
15133;DHT22;7667;51.232;17.110;2022-11-20T06:23:48;-8.20;99.90
15133;DHT22;7667;51.232;17.110;2022-11-20T06:26:22;-8.20;99.90
15133;DHT22;7667;51.232;17.110;2022-11-20T06:28:53;-8.30;99.90
15133;DHT22;7667;51.232;17.110;2022-11-20T06:31:24;-8.30;99.90
15133;DHT22;7667;51.232;17.110;2022-11-20T06:33:53;-8.20;99.90
15133;DHT22;7667;51.232;17.110;2022-11-20T06:36:21;-7.90;99.90
15133;DHT22;7667;51.232;17.110;2022-11-20T06:38:50;-7.60;99.90
15133;DHT22;7667;51.232;17.110;2022-11-20T06:41:19;-7.40;99.90
15133;DHT22;7667;51.232;17.110;2022-11-20T06:43:48;-7.30;99.90
15133;DHT22;7667;51.232;17.110;2022-11-20T06:46:17;-7.10;99.90
15133;DHT22;7667;51.232;17.110;2022-11-20T06:48:46;-7.10;99.90
15133;DHT22;7667;51.232;17.110;2022-11-20T06:51:14;-7.00;99.90
15133;DHT22;7667;51.232;17.110;2022-11-20T06:53:42;-7.00;99.90
15133;DHT22;7667;51.232;17.110;2022-11-20T06:56:09;-6.80;99.90
15133;DHT22;7667;51.232;17.110;2022-11-20T06:58:37;-6.80;99.90
15133;DHT22;7667;51.232;17.110;2022-11-20T07:01:07;-6.80;99.90
15133;DHT22;7667;51.232;17.110;2022-11-20T07:03:37;-6.80;99.90
15133;DHT22;7667;51.232;17.110;2022-11-20T07:06:05;-6.70;99.90
15133;DHT22;7667;51.232;17.110;2022-11-20T07:08:33;-6.60;99.90
15133;DHT22;7667;51.232;17.110;2022-11-20T07:11:04;-6.50;99.90
15133;DHT22;7667;51.232;17.110;2022-11-20T07:13:33;-6.40;99.90
15133;DHT22;7667;51.232;17.110;2022-11-20T07:16:04;-6.40;99.90
15133;DHT22;7667;51.232;17.110;2022-11-20T07:18:33;-6.30;99.90
15133;DHT22;7667;51.232;17.110;2022-11-20T07:21:02;-6.30;99.90
15133;DHT22;7667;51.232;17.110;2022-11-20T07:23:31;-6.40;99.90
15133;DHT22;7667;51.232;17.110;2022-11-20T07:26:05;-6.30;99.90
15133;DHT22;7667;51.232;17.110;2022-11-20T07:28:34;-6.30;99.90
15133;DHT22;7667;51.232;17.110;2022-11-20T07:31:03;-6.30;99.90
15133;DHT22;7667;51.232;17.110;2022-11-20T07:33:32;-6.20;99.90
15133;DHT22;7667;51.232;17.110;2022-11-20T07:35:59;-6.20;99.90
15133;DHT22;7667;51.232;17.110;2022-11-20T07:38:27;-6.00;99.90
15133;DHT22;7667;51.232;17.110;2022-11-20T07:40:56;-5.90;99.90
15133;DHT22;7667;51.232;17.110;2022-11-20T07:43:30;-5.70;99.90
15133;DHT22;7667;51.232;17.110;2022-11-20T07:46:04;-5.70;99.90
15133;DHT22;7667;51.232;17.110;2022-11-20T07:48:31;-5.50;99.90
15133;DHT22;7667;51.232;17.110;2022-11-20T07:50:59;-5.20;99.90
15133;DHT22;7667;51.232;17.110;2022-11-20T07:53:26;-5.10;99.90
15133;DHT22;7667;51.232;17.110;2022-11-20T07:55:54;-4.90;99.90
15133;DHT22;7667;51.232;17.110;2022-11-20T07:58:21;-4.80;99.90
15133;DHT22;7667;51.232;17.110;2022-11-20T08:00:49;-4.70;99.90
15133;DHT22;7667;51.232;17.110;2022-11-20T08:03:16;-4.50;99.90
15133;DHT22;7667;51.232;17.110;2022-11-20T08:05:51;-4.50;99.90
15133;DHT22;7667;51.232;17.110;2022-11-20T08:08:18;-4.40;99.90
15133;DHT22;7667;51.232;17.110;2022-11-20T08:10:46;-4.30;99.90
15133;DHT22;7667;51.232;17.110;2022-11-20T08:13:13;-4.30;99.90
15133;DHT22;7667;51.232;17.110;2022-11-20T08:15:59;-4.20;99.90
15133;DHT22;7667;51.232;17.110;2022-11-20T08:18:26;-4.10;99.90
15133;DHT22;7667;51.232;17.110;2022-11-20T08:21:02;-3.90;99.90
15133;DHT22;7667;51.232;17.110;2022-11-20T08:23:30;-3.80;99.90
15133;DHT22;7667;51.232;17.110;2022-11-20T08:25:58;-3.60;99.90
15133;DHT22;7667;51.232;17.110;2022-11-20T08:28:25;-3.60;99.90
15133;DHT22;7667;51.232;17.110;2022-11-20T08:31:01;-3.50;99.90
15133;DHT22;7667;51.232;17.110;2022-11-20T08:33:29;-3.40;99.90
15133;DHT22;7667;51.232;17.110;2022-11-20T08:36:01;-3.30;99.90
15133;DHT22;7667;51.232;17.110;2022-11-20T08:38:31;-3.10;99.90
15133;DHT22;7667;51.232;17.110;2022-11-20T08:41:00;-3.00;99.90
15133;DHT22;7667;51.232;17.110;2022-11-20T08:43:47;-2.90;99.90
15133;DHT22;7667;51.232;17.110;2022-11-20T08:46:14;-2.80;99.90
15133;DHT22;7667;51.232;17.110;2022-11-20T08:48:42;-2.60;99.90
15133;DHT22;7667;51.232;17.110;2022-11-20T08:51:11;-2.60;99.90
15133;DHT22;7667;51.232;17.110;2022-11-20T08:53:40;-2.70;99.90
15133;DHT22;7667;51.232;17.110;2022-11-20T08:56:08;-2.70;99.90
15133;DHT22;7667;51.232;17.110;2022-11-20T08:58:39;-2.50;99.90
15133;DHT22;7667;51.232;17.110;2022-11-20T09:01:28;-2.40;99.90
15133;DHT22;7667;51.232;17.110;2022-11-20T09:03:56;-2.30;99.90
15133;DHT22;7667;51.232;17.110;2022-11-20T09:06:24;-2.30;99.90
15133;DHT22;7667;51.232;17.110;2022-11-20T09:08:52;-2.20;99.90
15133;DHT22;7667;51.232;17.110;2022-11-20T09:11:21;-2.10;99.90
15133;DHT22;7667;51.232;17.110;2022-11-20T09:13:48;-2.00;99.90
15133;DHT22;7667;51.232;17.110;2022-11-20T09:16:16;-1.90;99.90
15133;DHT22;7667;51.232;17.110;2022-11-20T09:18:43;-1.80;99.90
15133;DHT22;7667;51.232;17.110;2022-11-20T09:21:12;-1.80;99.90
15133;DHT22;7667;51.232;17.110;2022-11-20T09:23:41;-1.70;99.90
15133;DHT22;7667;51.232;17.110;2022-11-20T09:26:12;-1.50;99.90
15133;DHT22;7667;51.232;17.110;2022-11-20T09:28:40;-1.20;99.90
15133;DHT22;7667;51.232;17.110;2022-11-20T09:31:14;-1.00;99.90
15133;DHT22;7667;51.232;17.110;2022-11-20T09:33:47;-1.00;99.90
15133;DHT22;7667;51.232;17.110;2022-11-20T09:36:14;-0.80;99.90
15133;DHT22;7667;51.232;17.110;2022-11-20T09:38:42;-0.70;99.90
15133;DHT22;7667;51.232;17.110;2022-11-20T09:41:31;-0.50;99.90
15133;DHT22;7667;51.232;17.110;2022-11-20T09:48:20;-0.40;99.90
15133;DHT22;7667;51.232;17.110;2022-11-20T09:51:02;-0.40;99.90
15133;DHT22;7667;51.232;17.110;2022-11-20T09:54:17;-0.40;99.90
15133;DHT22;7667;51.232;17.110;2022-11-20T09:57:10;-0.20;99.90
15133;DHT22;7667;51.232;17.110;2022-11-20T09:59:45;-0.10;99.90
15133;DHT22;7667;51.232;17.110;2022-11-20T10:07:38;0.40;99.90
15133;DHT22;7667;51.232;17.110;2022-11-20T10:10:21;0.50;99.90
15133;DHT22;7667;51.232;17.110;2022-11-20T10:13:18;0.50;99.90
15133;DHT22;7667;51.232;17.110;2022-11-20T10:25:56;0.80;99.90
15133;DHT22;7667;51.232;17.110;2022-11-20T10:31:11;1.00;99.90
15133;DHT22;7667;51.232;17.110;2022-11-20T10:34:03;1.10;99.90
15133;DHT22;7667;51.232;17.110;2022-11-20T10:37:11;1.40;99.90
15133;DHT22;7667;51.232;17.110;2022-11-20T10:40:00;1.60;99.90
15133;DHT22;7667;51.232;17.110;2022-11-20T10:48:29;1.70;99.90
15133;DHT22;7667;51.232;17.110;2022-11-20T11:00:31;2.10;99.90
15133;DHT22;7667;51.232;17.110;2022-11-20T11:02:59;2.30;99.90
15133;DHT22;7667;51.232;17.110;2022-11-20T11:08:14;2.10;99.90
15133;DHT22;7667;51.232;17.110;2022-11-20T11:11:00;2.00;99.90
15133;DHT22;7667;51.232;17.110;2022-11-20T11:13:30;2.00;99.90
15133;DHT22;7667;51.232;17.110;2022-11-20T11:15:58;2.10;99.90
15133;DHT22;7667;51.232;17.110;2022-11-20T11:18:33;2.30;99.90
15133;DHT22;7667;51.232;17.110;2022-11-20T11:21:04;2.30;99.90
15133;DHT22;7667;51.232;17.110;2022-11-20T11:23:39;2.30;99.90
15133;DHT22;7667;51.232;17.110;2022-11-20T11:26:22;2.20;99.90
15133;DHT22;7667;51.232;17.110;2022-11-20T11:28:57;2.00;99.90
15133;DHT22;7667;51.232;17.110;2022-11-20T11:31:34;1.90;99.90
15133;DHT22;7667;51.232;17.110;2022-11-20T11:34:15;2.20;99.90
15133;DHT22;7667;51.232;17.110;2022-11-20T11:36:56;2.40;99.90
15133;DHT22;7667;51.232;17.110;2022-11-20T11:39:27;2.40;99.90
15133;DHT22;7667;51.232;17.110;2022-11-20T11:41:57;2.70;99.90
15133;DHT22;7667;51.232;17.110;2022-11-20T11:44:32;2.70;99.90
15133;DHT22;7667;51.232;17.110;2022-11-20T12:00:54;2.10;99.90
15133;DHT22;7667;51.232;17.110;2022-11-20T12:03:35;2.20;99.90
15133;DHT22;7667;51.232;17.110;2022-11-20T12:06:13;2.50;99.90
15133;DHT22;7667;51.232;17.110;2022-11-20T12:09:05;2.80;99.90
15133;DHT22;7667;51.232;17.110;2022-11-20T12:14:37;3.10;99.90
15133;DHT22;7667;51.232;17.110;2022-11-20T12:17:12;3.40;99.90
15133;DHT22;7667;51.232;17.110;2022-11-20T12:19:40;3.60;99.90
15133;DHT22;7667;51.232;17.110;2022-11-20T12:37:04;3.60;99.90
15133;DHT22;7667;51.232;17.110;2022-11-20T12:39:49;3.90;99.90
15133;DHT22;7667;51.232;17.110;2022-11-20T12:42:26;4.30;99.90
15133;DHT22;7667;51.232;17.110;2022-11-20T12:51:24;5.90;98.30
15133;DHT22;7667;51.232;17.110;2022-11-20T12:57:02;6.30;96.80
15133;DHT22;7667;51.232;17.110;2022-11-20T13:08:36;6.00;96.10
15133;DHT22;7667;51.232;17.110;2022-11-20T13:11:34;5.80;95.90
15133;DHT22;7667;51.232;17.110;2022-11-20T13:17:11;6.10;95.50
15133;DHT22;7667;51.232;17.110;2022-11-20T13:19:52;6.40;95.10
15133;DHT22;7667;51.232;17.110;2022-11-20T13:22:29;5.80;95.10
15133;DHT22;7667;51.232;17.110;2022-11-20T13:25:32;5.10;96.00
15133;DHT22;7667;51.232;17.110;2022-11-20T13:28:27;5.30;96.60
15133;DHT22;7667;51.232;17.110;2022-11-20T13:30:57;4.50;97.40
15133;DHT22;7667;51.232;17.110;2022-11-20T13:33:33;4.10;99.20
15133;DHT22;7667;51.232;17.110;2022-11-20T13:36:19;4.70;99.00
15133;DHT22;7667;51.232;17.110;2022-11-20T13:38:53;5.00;98.30
15133;DHT22;7667;51.232;17.110;2022-11-20T13:41:34;4.80;98.70
15133;DHT22;7667;51.232;17.110;2022-11-20T13:44:21;4.90;98.60
15133;DHT22;7667;51.232;17.110;2022-11-20T13:46:52;5.00;98.70
15133;DHT22;7667;51.232;17.110;2022-11-20T13:49:38;5.20;98.80
15133;DHT22;7667;51.232;17.110;2022-11-20T13:58:31;4.50;99.90
15133;DHT22;7667;51.232;17.110;2022-11-20T14:01:23;4.60;99.90
15133;DHT22;7667;51.232;17.110;2022-11-20T14:03:53;4.80;99.90
15133;DHT22;7667;51.232;17.110;2022-11-20T14:06:42;4.60;99.90
15133;DHT22;7667;51.232;17.110;2022-11-20T14:09:29;4.40;99.90
15133;DHT22;7667;51.232;17.110;2022-11-20T14:11:58;4.30;99.90
15133;DHT22;7667;51.232;17.110;2022-11-20T14:14:28;4.10;99.90
15133;DHT22;7667;51.232;17.110;2022-11-20T14:19:46;3.60;99.90
15133;DHT22;7667;51.232;17.110;2022-11-20T14:22:25;3.40;99.90
15133;DHT22;7667;51.232;17.110;2022-11-20T14:27:52;2.50;99.90
15133;DHT22;7667;51.232;17.110;2022-11-20T14:30:42;2.20;99.90
15133;DHT22;7667;51.232;17.110;2022-11-20T14:33:12;1.90;99.90
15133;DHT22;7667;51.232;17.110;2022-11-20T14:35:46;1.60;99.90
15133;DHT22;7667;51.232;17.110;2022-11-20T14:38:17;1.40;99.90
15133;DHT22;7667;51.232;17.110;2022-11-20T14:40:46;1.20;99.90
15133;DHT22;7667;51.232;17.110;2022-11-20T14:43:27;0.90;99.90
15133;DHT22;7667;51.232;17.110;2022-11-20T14:45:58;0.70;99.90
15133;DHT22;7667;51.232;17.110;2022-11-20T14:48:47;0.50;99.90
15133;DHT22;7667;51.232;17.110;2022-11-20T14:51:38;0.30;99.90
15133;DHT22;7667;51.232;17.110;2022-11-20T14:54:19;0.00;99.90
15133;DHT22;7667;51.232;17.110;2022-11-20T14:57:00;-0.20;99.90
15133;DHT22;7667;51.232;17.110;2022-11-20T14:59:32;-0.40;99.90
15133;DHT22;7667;51.232;17.110;2022-11-20T15:02:19;-0.70;99.90
15133;DHT22;7667;51.232;17.110;2022-11-20T15:04:50;-1.00;99.90
15133;DHT22;7667;51.232;17.110;2022-11-20T15:07:29;-1.30;99.90
15133;DHT22;7667;51.232;17.110;2022-11-20T15:10:08;-1.60;99.90
15133;DHT22;7667;51.232;17.110;2022-11-20T15:12:47;-1.70;99.90
15133;DHT22;7667;51.232;17.110;2022-11-20T15:15:43;-1.80;99.90
15133;DHT22;7667;51.232;17.110;2022-11-20T15:18:14;-1.90;99.90
15133;DHT22;7667;51.232;17.110;2022-11-20T15:20:49;-1.90;99.90
15133;DHT22;7667;51.232;17.110;2022-11-20T15:23:18;-1.90;99.90
15133;DHT22;7667;51.232;17.110;2022-11-20T15:25:47;-1.80;99.90
15133;DHT22;7667;51.232;17.110;2022-11-20T15:28:39;-1.90;99.90
15133;DHT22;7667;51.232;17.110;2022-11-20T15:31:11;-2.00;99.90
15133;DHT22;7667;51.232;17.110;2022-11-20T15:33:39;-2.20;99.90
15133;DHT22;7667;51.232;17.110;2022-11-20T15:36:07;-2.40;99.90
15133;DHT22;7667;51.232;17.110;2022-11-20T15:38:36;-2.60;99.90
15133;DHT22;7667;51.232;17.110;2022-11-20T15:41:04;-2.60;99.90
15133;DHT22;7667;51.232;17.110;2022-11-20T15:43:32;-2.70;99.90
15133;DHT22;7667;51.232;17.110;2022-11-20T15:46:10;-2.90;99.90
15133;DHT22;7667;51.232;17.110;2022-11-20T15:48:43;-3.10;99.90
15133;DHT22;7667;51.232;17.110;2022-11-20T15:51:30;-3.20;99.90
15133;DHT22;7667;51.232;17.110;2022-11-20T15:53:58;-3.10;99.90
15133;DHT22;7667;51.232;17.110;2022-11-20T15:56:26;-3.00;99.90
15133;DHT22;7667;51.232;17.110;2022-11-20T15:58:54;-3.10;99.90
15133;DHT22;7667;51.232;17.110;2022-11-20T16:01:22;-3.00;99.90
15133;DHT22;7667;51.232;17.110;2022-11-20T16:03:49;-3.20;99.90
15133;DHT22;7667;51.232;17.110;2022-11-20T16:06:17;-3.40;99.90
15133;DHT22;7667;51.232;17.110;2022-11-20T16:08:44;-3.50;99.90
15133;DHT22;7667;51.232;17.110;2022-11-20T16:11:13;-3.60;99.90
15133;DHT22;7667;51.232;17.110;2022-11-20T16:13:43;-3.70;99.90
15133;DHT22;7667;51.232;17.110;2022-11-20T16:16:33;-3.70;99.90
15133;DHT22;7667;51.232;17.110;2022-11-20T16:19:02;-3.60;99.90
15133;DHT22;7667;51.232;17.110;2022-11-20T16:21:30;-3.40;99.90
15133;DHT22;7667;51.232;17.110;2022-11-20T16:24:11;-3.20;99.90
15133;DHT22;7667;51.232;17.110;2022-11-20T16:26:40;-3.10;99.90
15133;DHT22;7667;51.232;17.110;2022-11-20T16:29:08;-3.30;99.90
15133;DHT22;7667;51.232;17.110;2022-11-20T16:31:37;-3.40;99.90
15133;DHT22;7667;51.232;17.110;2022-11-20T16:34:07;-3.50;99.90
15133;DHT22;7667;51.232;17.110;2022-11-20T16:36:49;-3.50;99.90
15133;DHT22;7667;51.232;17.110;2022-11-20T16:39:17;-3.60;99.90
15133;DHT22;7667;51.232;17.110;2022-11-20T16:41:49;-3.70;99.90
15133;DHT22;7667;51.232;17.110;2022-11-20T16:44:17;-3.60;99.90
15133;DHT22;7667;51.232;17.110;2022-11-20T16:46:44;-3.70;99.90
15133;DHT22;7667;51.232;17.110;2022-11-20T16:49:13;-3.70;99.90
15133;DHT22;7667;51.232;17.110;2022-11-20T16:51:40;-3.60;99.90
15133;DHT22;7667;51.232;17.110;2022-11-20T16:54:09;-3.60;99.90
15133;DHT22;7667;51.232;17.110;2022-11-20T16:56:41;-3.50;99.90
15133;DHT22;7667;51.232;17.110;2022-11-20T16:59:08;-3.50;99.90
15133;DHT22;7667;51.232;17.110;2022-11-20T17:01:36;-3.50;99.90
15133;DHT22;7667;51.232;17.110;2022-11-20T17:04:06;-3.30;99.90
15133;DHT22;7667;51.232;17.110;2022-11-20T17:06:38;-3.40;99.90
15133;DHT22;7667;51.232;17.110;2022-11-20T17:09:07;-3.20;99.90
15133;DHT22;7667;51.232;17.110;2022-11-20T17:11:36;-3.00;99.90
15133;DHT22;7667;51.232;17.110;2022-11-20T17:14:04;-2.80;99.90
15133;DHT22;7667;51.232;17.110;2022-11-20T17:16:36;-2.80;99.90
15133;DHT22;7667;51.232;17.110;2022-11-20T17:19:04;-3.00;99.90
15133;DHT22;7667;51.232;17.110;2022-11-20T17:21:33;-3.20;99.90
15133;DHT22;7667;51.232;17.110;2022-11-20T17:24:10;-3.30;99.90
15133;DHT22;7667;51.232;17.110;2022-11-20T17:26:40;-3.30;99.90
15133;DHT22;7667;51.232;17.110;2022-11-20T17:29:16;-3.20;99.90
15133;DHT22;7667;51.232;17.110;2022-11-20T17:31:45;-3.20;99.90
15133;DHT22;7667;51.232;17.110;2022-11-20T17:34:13;-3.20;99.90
15133;DHT22;7667;51.232;17.110;2022-11-20T17:36:42;-3.10;99.90
15133;DHT22;7667;51.232;17.110;2022-11-20T17:39:14;-3.10;99.90
15133;DHT22;7667;51.232;17.110;2022-11-20T17:41:43;-3.10;99.90
15133;DHT22;7667;51.232;17.110;2022-11-20T17:44:12;-3.10;99.90
15133;DHT22;7667;51.232;17.110;2022-11-20T17:46:39;-3.10;99.90
15133;DHT22;7667;51.232;17.110;2022-11-20T17:49:07;-3.20;99.90
15133;DHT22;7667;51.232;17.110;2022-11-20T17:51:34;-3.10;99.90
15133;DHT22;7667;51.232;17.110;2022-11-20T17:54:04;-3.00;99.90
15133;DHT22;7667;51.232;17.110;2022-11-20T17:56:34;-3.00;99.90
15133;DHT22;7667;51.232;17.110;2022-11-20T17:59:20;-3.10;99.90
15133;DHT22;7667;51.232;17.110;2022-11-20T18:01:48;-3.00;99.90
15133;DHT22;7667;51.232;17.110;2022-11-20T18:04:16;-2.90;99.90
15133;DHT22;7667;51.232;17.110;2022-11-20T18:06:44;-2.80;99.90
15133;DHT22;7667;51.232;17.110;2022-11-20T18:09:12;-2.70;99.90